sensor_id;sensor_type;location;lat;lon;timestamp;P1;durP1;ratioP1;P2;durP2;ratioP2
50821;SDS011;36794;51.212;6.980;2023-04-15T00:00:27;11.23;;;5.07;;
50821;SDS011;36794;51.212;6.980;2023-04-15T00:02:54;10.57;;;4.87;;
50821;SDS011;36794;51.212;6.980;2023-04-15T00:05:20;11.53;;;5.07;;
50821;SDS011;36794;51.212;6.980;2023-04-15T00:07:46;10.37;;;4.87;;
50821;SDS011;36794;51.212;6.980;2023-04-15T00:10:12;10.37;;;4.90;;
50821;SDS011;36794;51.212;6.980;2023-04-15T00:12:38;11.37;;;4.93;;
50821;SDS011;36794;51.212;6.980;2023-04-15T00:15:05;13.67;;;4.97;;
50821;SDS011;36794;51.212;6.980;2023-04-15T00:17:32;10.20;;;5.33;;
50821;SDS011;36794;51.212;6.980;2023-04-15T00:19:58;10.37;;;5.50;;
50821;SDS011;36794;51.212;6.980;2023-04-15T00:22:24;9.97;;;4.63;;
50821;SDS011;36794;51.212;6.980;2023-04-15T00:24:51;15.00;;;5.67;;
50821;SDS011;36794;51.212;6.980;2023-04-15T00:27:17;9.47;;;4.60;;
50821;SDS011;36794;51.212;6.980;2023-04-15T00:29:43;8.93;;;4.70;;
50821;SDS011;36794;51.212;6.980;2023-04-15T00:32:09;12.73;;;5.10;;
50821;SDS011;36794;51.212;6.980;2023-04-15T00:34:35;12.63;;;5.53;;
50821;SDS011;36794;51.212;6.980;2023-04-15T00:37:01;7.27;;;4.73;;
50821;SDS011;36794;51.212;6.980;2023-04-15T00:39:27;12.43;;;5.37;;
50821;SDS011;36794;51.212;6.980;2023-04-15T00:41:53;13.60;;;6.30;;
50821;SDS011;36794;51.212;6.980;2023-04-15T00:44:20;11.13;;;5.60;;
50821;SDS011;36794;51.212;6.980;2023-04-15T00:46:46;13.10;;;5.77;;
50821;SDS011;36794;51.212;6.980;2023-04-15T00:49:13;11.43;;;5.97;;
50821;SDS011;36794;51.212;6.980;2023-04-15T00:51:39;12.80;;;5.80;;
50821;SDS011;36794;51.212;6.980;2023-04-15T00:54:05;13.63;;;6.47;;
50821;SDS011;36794;51.212;6.980;2023-04-15T00:56:35;14.27;;;5.97;;
50821;SDS011;36794;51.212;6.980;2023-04-15T00:59:02;10.17;;;6.33;;
50821;SDS011;36794;51.212;6.980;2023-04-15T01:01:28;14.97;;;5.87;;
50821;SDS011;36794;51.212;6.980;2023-04-15T01:03:55;11.77;;;5.30;;
50821;SDS011;36794;51.212;6.980;2023-04-15T01:06:22;16.77;;;5.73;;
50821;SDS011;36794;51.212;6.980;2023-04-15T01:08:48;15.17;;;6.73;;
50821;SDS011;36794;51.212;6.980;2023-04-15T01:11:15;11.27;;;6.10;;
50821;SDS011;36794;51.212;6.980;2023-04-15T01:13:41;13.67;;;6.57;;
50821;SDS011;36794;51.212;6.980;2023-04-15T01:16:07;9.07;;;6.20;;
50821;SDS011;36794;51.212;6.980;2023-04-15T01:18:34;11.47;;;6.47;;
50821;SDS011;36794;51.212;6.980;2023-04-15T01:21:01;12.13;;;5.70;;
50821;SDS011;36794;51.212;6.980;2023-04-15T01:23:28;11.47;;;6.10;;
50821;SDS011;36794;51.212;6.980;2023-04-15T01:25:54;10.03;;;6.30;;
50821;SDS011;36794;51.212;6.980;2023-04-15T01:28:20;9.00;;;5.67;;
50821;SDS011;36794;51.212;6.980;2023-04-15T01:30:46;15.77;;;6.80;;
50821;SDS011;36794;51.212;6.980;2023-04-15T01:33:13;12.70;;;6.53;;
50821;SDS011;36794;51.212;6.980;2023-04-15T01:35:39;10.73;;;5.53;;
50821;SDS011;36794;51.212;6.980;2023-04-15T01:38:05;9.77;;;6.47;;
50821;SDS011;36794;51.212;6.980;2023-04-15T01:40:32;12.90;;;6.10;;
50821;SDS011;36794;51.212;6.980;2023-04-15T01:42:59;12.50;;;6.17;;
50821;SDS011;36794;51.212;6.980;2023-04-15T01:45:25;11.40;;;6.17;;
50821;SDS011;36794;51.212;6.980;2023-04-15T01:47:51;12.13;;;6.00;;
50821;SDS011;36794;51.212;6.980;2023-04-15T01:50:17;16.23;;;6.10;;
50821;SDS011;36794;51.212;6.980;2023-04-15T01:52:44;8.97;;;5.53;;
50821;SDS011;36794;51.212;6.980;2023-04-15T01:55:11;12.00;;;6.27;;
50821;SDS011;36794;51.212;6.980;2023-04-15T01:57:37;13.37;;;6.50;;
50821;SDS011;36794;51.212;6.980;2023-04-15T02:00:03;10.67;;;6.03;;
50821;SDS011;36794;51.212;6.980;2023-04-15T02:02:31;8.83;;;5.90;;
50821;SDS011;36794;51.212;6.980;2023-04-15T02:04:57;12.60;;;6.33;;
50821;SDS011;36794;51.212;6.980;2023-04-15T02:07:23;13.13;;;6.03;;
50821;SDS011;36794;51.212;6.980;2023-04-15T02:09:49;10.90;;;7.03;;
50821;SDS011;36794;51.212;6.980;2023-04-15T02:12:15;13.37;;;6.47;;
50821;SDS011;36794;51.212;6.980;2023-04-15T02:14:41;9.63;;;6.33;;
50821;SDS011;36794;51.212;6.980;2023-04-15T02:17:07;9.50;;;6.77;;
50821;SDS011;36794;51.212;6.980;2023-04-15T02:19:33;12.37;;;6.70;;
50821;SDS011;36794;51.212;6.980;2023-04-15T02:22:00;9.57;;;6.00;;
50821;SDS011;36794;51.212;6.980;2023-04-15T02:24:26;14.17;;;6.17;;
50821;SDS011;36794;51.212;6.980;2023-04-15T02:26:52;10.80;;;6.27;;
50821;SDS011;36794;51.212;6.980;2023-04-15T02:29:18;12.50;;;6.20;;
50821;SDS011;36794;51.212;6.980;2023-04-15T02:31:44;14.10;;;7.20;;
50821;SDS011;36794;51.212;6.980;2023-04-15T02:34:12;13.93;;;6.93;;
50821;SDS011;36794;51.212;6.980;2023-04-15T02:36:38;12.03;;;6.57;;
50821;SDS011;36794;51.212;6.980;2023-04-15T02:39:04;9.93;;;6.43;;
50821;SDS011;36794;51.212;6.980;2023-04-15T02:41:30;14.63;;;6.83;;
50821;SDS011;36794;51.212;6.980;2023-04-15T02:43:56;12.60;;;7.10;;
50821;SDS011;36794;51.212;6.980;2023-04-15T02:46:22;11.83;;;7.17;;
50821;SDS011;36794;51.212;6.980;2023-04-15T02:48:49;11.53;;;6.67;;
50821;SDS011;36794;51.212;6.980;2023-04-15T02:51:16;15.70;;;6.53;;
50821;SDS011;36794;51.212;6.980;2023-04-15T02:53:43;13.73;;;7.43;;
50821;SDS011;36794;51.212;6.980;2023-04-15T02:56:09;12.97;;;7.50;;
50821;SDS011;36794;51.212;6.980;2023-04-15T02:58:36;11.57;;;6.90;;
50821;SDS011;36794;51.212;6.980;2023-04-15T03:01:02;16.70;;;7.13;;
50821;SDS011;36794;51.212;6.980;2023-04-15T03:03:28;12.40;;;7.07;;
50821;SDS011;36794;51.212;6.980;2023-04-15T03:05:54;11.17;;;6.97;;
50821;SDS011;36794;51.212;6.980;2023-04-15T03:08:20;15.50;;;7.67;;
50821;SDS011;36794;51.212;6.980;2023-04-15T03:10:46;13.07;;;7.20;;
50821;SDS011;36794;51.212;6.980;2023-04-15T03:13:12;13.23;;;7.20;;
50821;SDS011;36794;51.212;6.980;2023-04-15T03:15:38;13.43;;;7.80;;
50821;SDS011;36794;51.212;6.980;2023-04-15T03:18:04;16.53;;;7.10;;
50821;SDS011;36794;51.212;6.980;2023-04-15T03:20:30;13.87;;;7.27;;
50821;SDS011;36794;51.212;6.980;2023-04-15T03:22:56;13.07;;;7.53;;
50821;SDS011;36794;51.212;6.980;2023-04-15T03:25:22;15.00;;;7.80;;
50821;SDS011;36794;51.212;6.980;2023-04-15T03:27:48;13.33;;;7.53;;
50821;SDS011;36794;51.212;6.980;2023-04-15T03:30:15;13.03;;;6.97;;
50821;SDS011;36794;51.212;6.980;2023-04-15T03:32:41;15.90;;;8.27;;
50821;SDS011;36794;51.212;6.980;2023-04-15T03:35:07;12.90;;;7.10;;
50821;SDS011;36794;51.212;6.980;2023-04-15T03:37:33;12.13;;;7.33;;
50821;SDS011;36794;51.212;6.980;2023-04-15T03:39:59;13.70;;;7.27;;
50821;SDS011;36794;51.212;6.980;2023-04-15T03:42:25;12.70;;;7.30;;
50821;SDS011;36794;51.212;6.980;2023-04-15T03:44:51;12.97;;;8.23;;
50821;SDS011;36794;51.212;6.980;2023-04-15T03:47:17;17.10;;;8.37;;
50821;SDS011;36794;51.212;6.980;2023-04-15T03:49:43;16.23;;;8.40;;
50821;SDS011;36794;51.212;6.980;2023-04-15T03:52:09;25.07;;;9.00;;
50821;SDS011;36794;51.212;6.980;2023-04-15T03:54:35;12.43;;;8.17;;
50821;SDS011;36794;51.212;6.980;2023-04-15T03:57:01;16.20;;;8.10;;
50821;SDS011;36794;51.212;6.980;2023-04-15T03:59:27;14.57;;;8.07;;
50821;SDS011;36794;51.212;6.980;2023-04-15T04:01:53;15.13;;;8.37;;
50821;SDS011;36794;51.212;6.980;2023-04-15T04:04:19;11.70;;;7.67;;
50821;SDS011;36794;51.212;6.980;2023-04-15T04:06:45;15.03;;;7.90;;
50821;SDS011;36794;51.212;6.980;2023-04-15T04:09:11;17.47;;;8.77;;
50821;SDS011;36794;51.212;6.980;2023-04-15T04:11:37;13.37;;;8.73;;
50821;SDS011;36794;51.212;6.980;2023-04-15T04:14:03;14.03;;;8.80;;
50821;SDS011;36794;51.212;6.980;2023-04-15T04:16:29;17.57;;;8.63;;
50821;SDS011;36794;51.212;6.980;2023-04-15T04:18:55;12.07;;;8.23;;
50821;SDS011;36794;51.212;6.980;2023-04-15T04:21:21;12.97;;;7.83;;
50821;SDS011;36794;51.212;6.980;2023-04-15T04:23:47;15.80;;;8.20;;
50821;SDS011;36794;51.212;6.980;2023-04-15T04:26:13;13.67;;;8.63;;
50821;SDS011;36794;51.212;6.980;2023-04-15T04:28:39;15.63;;;8.70;;
50821;SDS011;36794;51.212;6.980;2023-04-15T04:31:05;12.63;;;8.47;;
50821;SDS011;36794;51.212;6.980;2023-04-15T04:33:32;16.93;;;8.50;;
50821;SDS011;36794;51.212;6.980;2023-04-15T04:35:58;18.30;;;8.60;;
50821;SDS011;36794;51.212;6.980;2023-04-15T04:38:24;12.50;;;8.17;;
50821;SDS011;36794;51.212;6.980;2023-04-15T04:40:50;13.47;;;8.27;;
50821;SDS011;36794;51.212;6.980;2023-04-15T04:43:16;14.67;;;8.83;;
50821;SDS011;36794;51.212;6.980;2023-04-15T04:45:42;15.90;;;8.47;;
50821;SDS011;36794;51.212;6.980;2023-04-15T04:48:08;13.10;;;8.47;;
50821;SDS011;36794;51.212;6.980;2023-04-15T04:50:34;13.83;;;8.80;;
50821;SDS011;36794;51.212;6.980;2023-04-15T04:53:01;14.33;;;8.37;;
50821;SDS011;36794;51.212;6.980;2023-04-15T04:55:27;13.17;;;7.97;;
50821;SDS011;36794;51.212;6.980;2023-04-15T04:57:53;14.17;;;8.70;;
50821;SDS011;36794;51.212;6.980;2023-04-15T05:00:19;17.63;;;8.40;;
50821;SDS011;36794;51.212;6.980;2023-04-15T05:02:45;18.73;;;8.77;;
50821;SDS011;36794;51.212;6.980;2023-04-15T05:05:11;17.07;;;8.57;;
50821;SDS011;36794;51.212;6.980;2023-04-15T05:07:37;16.27;;;8.63;;
50821;SDS011;36794;51.212;6.980;2023-04-15T05:10:04;13.03;;;7.80;;
50821;SDS011;36794;51.212;6.980;2023-04-15T05:12:30;12.03;;;8.27;;
50821;SDS011;36794;51.212;6.980;2023-04-15T05:14:56;16.03;;;7.63;;
50821;SDS011;36794;51.212;6.980;2023-04-15T05:17:22;12.40;;;8.07;;
50821;SDS011;36794;51.212;6.980;2023-04-15T05:19:48;12.80;;;8.10;;
50821;SDS011;36794;51.212;6.980;2023-04-15T05:22:14;15.07;;;8.43;;
50821;SDS011;36794;51.212;6.980;2023-04-15T05:24:40;17.40;;;8.20;;
50821;SDS011;36794;51.212;6.980;2023-04-15T05:27:06;13.30;;;8.00;;
50821;SDS011;36794;51.212;6.980;2023-04-15T05:29:34;12.63;;;8.53;;
50821;SDS011;36794;51.212;6.980;2023-04-15T05:32:00;15.73;;;8.03;;
50821;SDS011;36794;51.212;6.980;2023-04-15T05:34:26;16.23;;;9.50;;
50821;SDS011;36794;51.212;6.980;2023-04-15T05:36:52;16.93;;;9.40;;
50821;SDS011;36794;51.212;6.980;2023-04-15T05:39:18;12.43;;;9.13;;
50821;SDS011;36794;51.212;6.980;2023-04-15T05:41:44;13.87;;;8.70;;
50821;SDS011;36794;51.212;6.980;2023-04-15T05:44:10;15.60;;;8.67;;
50821;SDS011;36794;51.212;6.980;2023-04-15T05:46:36;16.53;;;10.10;;
50821;SDS011;36794;51.212;6.980;2023-04-15T05:49:02;11.53;;;9.17;;
50821;SDS011;36794;51.212;6.980;2023-04-15T05:51:28;14.10;;;9.80;;
50821;SDS011;36794;51.212;6.980;2023-04-15T05:53:54;15.43;;;9.67;;
50821;SDS011;36794;51.212;6.980;2023-04-15T05:56:20;14.57;;;9.40;;
50821;SDS011;36794;51.212;6.980;2023-04-15T05:58:46;16.40;;;10.33;;
50821;SDS011;36794;51.212;6.980;2023-04-15T06:01:12;15.13;;;9.97;;
50821;SDS011;36794;51.212;6.980;2023-04-15T06:03:39;16.37;;;9.77;;
50821;SDS011;36794;51.212;6.980;2023-04-15T06:06:05;16.07;;;9.83;;
50821;SDS011;36794;51.212;6.980;2023-04-15T06:08:31;19.47;;;10.77;;
50821;SDS011;36794;51.212;6.980;2023-04-15T06:10:57;15.17;;;10.13;;
50821;SDS011;36794;51.212;6.980;2023-04-15T06:13:23;15.37;;;10.00;;
50821;SDS011;36794;51.212;6.980;2023-04-15T06:15:49;14.20;;;10.30;;
50821;SDS011;36794;51.212;6.980;2023-04-15T06:18:15;14.37;;;9.97;;
50821;SDS011;36794;51.212;6.980;2023-04-15T06:20:41;16.47;;;11.70;;
50821;SDS011;36794;51.212;6.980;2023-04-15T06:23:07;19.50;;;11.10;;
50821;SDS011;36794;51.212;6.980;2023-04-15T06:25:33;16.20;;;9.83;;
50821;SDS011;36794;51.212;6.980;2023-04-15T06:27:59;14.90;;;9.60;;
50821;SDS011;36794;51.212;6.980;2023-04-15T06:30:25;12.40;;;9.53;;
50821;SDS011;36794;51.212;6.980;2023-04-15T06:32:51;17.73;;;8.40;;
50821;SDS011;36794;51.212;6.980;2023-04-15T06:35:17;14.37;;;8.97;;
50821;SDS011;36794;51.212;6.980;2023-04-15T06:37:43;14.70;;;9.77;;
50821;SDS011;36794;51.212;6.980;2023-04-15T06:40:09;14.97;;;9.57;;
50821;SDS011;36794;51.212;6.980;2023-04-15T06:42:35;14.90;;;8.40;;
50821;SDS011;36794;51.212;6.980;2023-04-15T06:45:02;13.40;;;7.87;;
50821;SDS011;36794;51.212;6.980;2023-04-15T06:47:28;10.93;;;7.73;;
50821;SDS011;36794;51.212;6.980;2023-04-15T06:49:54;13.90;;;6.90;;
50821;SDS011;36794;51.212;6.980;2023-04-15T06:52:20;10.77;;;6.37;;
50821;SDS011;36794;51.212;6.980;2023-04-15T06:54:46;8.50;;;5.63;;
50821;SDS011;36794;51.212;6.980;2023-04-15T06:57:12;11.70;;;6.77;;
50821;SDS011;36794;51.212;6.980;2023-04-15T06:59:37;10.90;;;7.00;;
50821;SDS011;36794;51.212;6.980;2023-04-15T07:02:03;10.00;;;6.33;;
50821;SDS011;36794;51.212;6.980;2023-04-15T07:04:29;11.10;;;5.93;;
50821;SDS011;36794;51.212;6.980;2023-04-15T07:06:56;10.07;;;5.97;;
50821;SDS011;36794;51.212;6.980;2023-04-15T07:09:23;7.13;;;5.50;;
50821;SDS011;36794;51.212;6.980;2023-04-15T07:11:49;9.57;;;5.13;;
50821;SDS011;36794;51.212;6.980;2023-04-15T07:14:15;6.43;;;5.40;;
50821;SDS011;36794;51.212;6.980;2023-04-15T07:16:41;6.77;;;5.10;;
50821;SDS011;36794;51.212;6.980;2023-04-15T07:19:07;9.47;;;5.87;;
50821;SDS011;36794;51.212;6.980;2023-04-15T07:21:33;8.33;;;5.57;;
50821;SDS011;36794;51.212;6.980;2023-04-15T07:23:59;9.80;;;5.40;;
50821;SDS011;36794;51.212;6.980;2023-04-15T07:26:25;7.50;;;5.30;;
50821;SDS011;36794;51.212;6.980;2023-04-15T07:28:51;9.53;;;6.17;;
50821;SDS011;36794;51.212;6.980;2023-04-15T07:31:17;9.40;;;6.23;;
50821;SDS011;36794;51.212;6.980;2023-04-15T07:33:44;8.20;;;6.40;;
50821;SDS011;36794;51.212;6.980;2023-04-15T07:36:10;9.20;;;6.07;;
50821;SDS011;36794;51.212;6.980;2023-04-15T07:38:36;7.77;;;5.90;;
50821;SDS011;36794;51.212;6.980;2023-04-15T07:41:02;9.37;;;6.03;;
50821;SDS011;36794;51.212;6.980;2023-04-15T07:43:28;8.17;;;5.00;;
50821;SDS011;36794;51.212;6.980;2023-04-15T07:45:54;8.87;;;5.37;;
50821;SDS011;36794;51.212;6.980;2023-04-15T07:48:20;8.27;;;5.00;;
50821;SDS011;36794;51.212;6.980;2023-04-15T07:50:47;7.70;;;5.23;;
50821;SDS011;36794;51.212;6.980;2023-04-15T07:53:12;6.07;;;4.27;;
50821;SDS011;36794;51.212;6.980;2023-04-15T07:55:39;6.20;;;4.73;;
50821;SDS011;36794;51.212;6.980;2023-04-15T07:58:05;6.17;;;4.47;;
50821;SDS011;36794;51.212;6.980;2023-04-15T08:00:31;5.73;;;4.30;;
50821;SDS011;36794;51.212;6.980;2023-04-15T08:02:57;7.40;;;4.83;;
50821;SDS011;36794;51.212;6.980;2023-04-15T08:05:26;6.63;;;4.53;;
50821;SDS011;36794;51.212;6.980;2023-04-15T08:07:52;5.40;;;4.30;;
50821;SDS011;36794;51.212;6.980;2023-04-15T08:10:18;8.77;;;4.93;;
50821;SDS011;36794;51.212;6.980;2023-04-15T08:12:44;6.73;;;4.57;;
50821;SDS011;36794;51.212;6.980;2023-04-15T08:15:13;6.47;;;4.83;;
50821;SDS011;36794;51.212;6.980;2023-04-15T08:17:39;6.63;;;4.77;;
50821;SDS011;36794;51.212;6.980;2023-04-15T08:20:05;7.67;;;5.13;;
50821;SDS011;36794;51.212;6.980;2023-04-15T08:22:31;6.73;;;5.03;;
50821;SDS011;36794;51.212;6.980;2023-04-15T08:24:58;6.93;;;5.30;;
50821;SDS011;36794;51.212;6.980;2023-04-15T08:27:24;7.30;;;5.30;;
50821;SDS011;36794;51.212;6.980;2023-04-15T08:29:50;7.53;;;5.33;;
50821;SDS011;36794;51.212;6.980;2023-04-15T08:32:16;8.50;;;5.40;;
50821;SDS011;36794;51.212;6.980;2023-04-15T08:34:43;6.23;;;4.30;;
50821;SDS011;36794;51.212;6.980;2023-04-15T08:37:09;6.30;;;4.23;;
50821;SDS011;36794;51.212;6.980;2023-04-15T08:39:34;6.67;;;4.63;;
50821;SDS011;36794;51.212;6.980;2023-04-15T08:42:01;7.63;;;4.67;;
50821;SDS011;36794;51.212;6.980;2023-04-15T08:44:32;10.30;;;5.27;;
50821;SDS011;36794;51.212;6.980;2023-04-15T08:47:00;6.93;;;4.87;;
50821;SDS011;36794;51.212;6.980;2023-04-15T08:49:26;7.57;;;4.97;;
50821;SDS011;36794;51.212;6.980;2023-04-15T08:51:53;6.57;;;4.83;;
50821;SDS011;36794;51.212;6.980;2023-04-15T08:54:20;7.20;;;5.03;;
50821;SDS011;36794;51.212;6.980;2023-04-15T08:56:47;7.67;;;4.90;;
50821;SDS011;36794;51.212;6.980;2023-04-15T08:59:13;7.63;;;4.93;;
50821;SDS011;36794;51.212;6.980;2023-04-15T09:01:40;6.83;;;4.73;;
50821;SDS011;36794;51.212;6.980;2023-04-15T09:04:06;7.93;;;4.90;;
50821;SDS011;36794;51.212;6.980;2023-04-15T09:06:32;7.03;;;5.20;;
50821;SDS011;36794;51.212;6.980;2023-04-15T09:08:58;8.97;;;4.67;;
50821;SDS011;36794;51.212;6.980;2023-04-15T09:11:25;7.37;;;4.67;;
50821;SDS011;36794;51.212;6.980;2023-04-15T09:13:51;5.60;;;4.30;;
50821;SDS011;36794;51.212;6.980;2023-04-15T09:16:17;4.73;;;4.17;;
50821;SDS011;36794;51.212;6.980;2023-04-15T09:18:43;6.80;;;4.13;;
50821;SDS011;36794;51.212;6.980;2023-04-15T09:21:10;5.30;;;4.57;;
50821;SDS011;36794;51.212;6.980;2023-04-15T09:23:37;6.90;;;4.40;;
50821;SDS011;36794;51.212;6.980;2023-04-15T09:26:04;6.00;;;4.20;;
50821;SDS011;36794;51.212;6.980;2023-04-15T09:28:30;5.20;;;3.90;;
50821;SDS011;36794;51.212;6.980;2023-04-15T09:33:23;7.40;;;4.63;;
50821;SDS011;36794;51.212;6.980;2023-04-15T09:38:22;5.83;;;4.20;;
50821;SDS011;36794;51.212;6.980;2023-04-15T09:40:48;6.87;;;4.83;;
50821;SDS011;36794;51.212;6.980;2023-04-15T09:43:14;4.80;;;4.30;;
50821;SDS011;36794;51.212;6.980;2023-04-15T09:45:51;5.50;;;4.30;;
50821;SDS011;36794;51.212;6.980;2023-04-15T09:48:18;5.87;;;4.63;;
50821;SDS011;36794;51.212;6.980;2023-04-15T09:50:45;12.50;;;4.80;;
50821;SDS011;36794;51.212;6.980;2023-04-15T09:53:16;4.67;;;3.60;;
50821;SDS011;36794;51.212;6.980;2023-04-15T09:55:49;7.33;;;4.10;;
50821;SDS011;36794;51.212;6.980;2023-04-15T09:58:23;5.90;;;4.50;;
50821;SDS011;36794;51.212;6.980;2023-04-15T10:00:49;5.23;;;3.90;;
50821;SDS011;36794;51.212;6.980;2023-04-15T10:03:17;8.73;;;3.40;;
50821;SDS011;36794;51.212;6.980;2023-04-15T10:05:44;6.40;;;3.30;;
50821;SDS011;36794;51.212;6.980;2023-04-15T10:08:11;5.83;;;3.13;;
50821;SDS011;36794;51.212;6.980;2023-04-15T10:10:37;5.23;;;2.83;;
50821;SDS011;36794;51.212;6.980;2023-04-15T10:13:04;4.73;;;2.90;;
50821;SDS011;36794;51.212;6.980;2023-04-15T10:15:31;4.20;;;3.20;;
50821;SDS011;36794;51.212;6.980;2023-04-15T10:17:58;7.60;;;3.53;;
50821;SDS011;36794;51.212;6.980;2023-04-15T10:20:25;4.30;;;3.20;;
50821;SDS011;36794;51.212;6.980;2023-04-15T10:22:51;3.90;;;3.10;;
50821;SDS011;36794;51.212;6.980;2023-04-15T10:25:18;4.77;;;3.60;;
50821;SDS011;36794;51.212;6.980;2023-04-15T10:27:44;5.10;;;3.40;;
50821;SDS011;36794;51.212;6.980;2023-04-15T10:30:12;5.03;;;3.40;;
50821;SDS011;36794;51.212;6.980;2023-04-15T10:32:38;4.63;;;3.33;;
50821;SDS011;36794;51.212;6.980;2023-04-15T10:35:05;3.87;;;3.13;;
50821;SDS011;36794;51.212;6.980;2023-04-15T10:37:34;3.57;;;2.83;;
50821;SDS011;36794;51.212;6.980;2023-04-15T10:40:04;4.27;;;3.27;;
50821;SDS011;36794;51.212;6.980;2023-04-15T10:42:47;4.17;;;3.47;;
50821;SDS011;36794;51.212;6.980;2023-04-15T10:45:17;3.63;;;3.03;;
50821;SDS011;36794;51.212;6.980;2023-04-15T10:47:43;5.03;;;3.40;;
50821;SDS011;36794;51.212;6.980;2023-04-15T10:50:09;4.73;;;3.63;;
50821;SDS011;36794;51.212;6.980;2023-04-15T10:52:36;5.43;;;3.40;;
50821;SDS011;36794;51.212;6.980;2023-04-15T10:57:41;4.13;;;3.23;;
50821;SDS011;36794;51.212;6.980;2023-04-15T11:02:52;5.00;;;3.40;;
50821;SDS011;36794;51.212;6.980;2023-04-15T11:05:19;3.70;;;3.00;;
50821;SDS011;36794;51.212;6.980;2023-04-15T11:12:38;5.37;;;3.50;;
50821;SDS011;36794;51.212;6.980;2023-04-15T11:15:24;4.60;;;3.67;;
50821;SDS011;36794;51.212;6.980;2023-04-15T11:17:52;4.20;;;3.37;;
50821;SDS011;36794;51.212;6.980;2023-04-15T11:20:18;5.60;;;4.13;;
50821;SDS011;36794;51.212;6.980;2023-04-15T11:22:49;4.90;;;4.43;;
50821;SDS011;36794;51.212;6.980;2023-04-15T11:25:25;4.90;;;4.30;;
50821;SDS011;36794;51.212;6.980;2023-04-15T11:27:52;5.77;;;5.10;;
50821;SDS011;36794;51.212;6.980;2023-04-15T11:30:19;5.57;;;5.07;;
50821;SDS011;36794;51.212;6.980;2023-04-15T11:32:46;7.60;;;5.33;;
50821;SDS011;36794;51.212;6.980;2023-04-15T11:35:11;5.20;;;4.70;;
50821;SDS011;36794;51.212;6.980;2023-04-15T11:37:37;5.10;;;4.23;;
50821;SDS011;36794;51.212;6.980;2023-04-15T11:40:03;5.07;;;4.30;;
50821;SDS011;36794;51.212;6.980;2023-04-15T11:42:30;4.10;;;3.70;;
50821;SDS011;36794;51.212;6.980;2023-04-15T11:45:06;4.73;;;3.77;;
50821;SDS011;36794;51.212;6.980;2023-04-15T11:47:33;4.20;;;3.20;;
50821;SDS011;36794;51.212;6.980;2023-04-15T11:50:19;4.00;;;3.43;;
50821;SDS011;36794;51.212;6.980;2023-04-15T11:52:55;4.90;;;4.30;;
50821;SDS011;36794;51.212;6.980;2023-04-15T11:55:22;5.70;;;5.10;;
50821;SDS011;36794;51.212;6.980;2023-04-15T12:03:18;8.10;;;6.47;;
50821;SDS011;36794;51.212;6.980;2023-04-15T12:06:04;7.27;;;6.57;;
50821;SDS011;36794;51.212;6.980;2023-04-15T12:10:58;8.13;;;6.40;;
50821;SDS011;36794;51.212;6.980;2023-04-15T12:13:26;7.40;;;6.33;;
50821;SDS011;36794;51.212;6.980;2023-04-15T12:15:52;6.83;;;6.13;;
50821;SDS011;36794;51.212;6.980;2023-04-15T12:18:20;7.30;;;6.13;;
50821;SDS011;36794;51.212;6.980;2023-04-15T12:20:46;6.40;;;5.77;;
50821;SDS011;36794;51.212;6.980;2023-04-15T12:23:14;6.93;;;5.20;;
50821;SDS011;36794;51.212;6.980;2023-04-15T12:25:43;6.33;;;5.57;;
50821;SDS011;36794;51.212;6.980;2023-04-15T12:28:16;7.10;;;5.40;;
50821;SDS011;36794;51.212;6.980;2023-04-15T12:30:49;7.50;;;5.40;;
50821;SDS011;36794;51.212;6.980;2023-04-15T12:33:18;5.70;;;5.10;;
50821;SDS011;36794;51.212;6.980;2023-04-15T12:35:44;6.20;;;5.60;;
50821;SDS011;36794;51.212;6.980;2023-04-15T12:38:10;6.77;;;5.97;;
50821;SDS011;36794;51.212;6.980;2023-04-15T12:40:36;6.70;;;5.60;;
50821;SDS011;36794;51.212;6.980;2023-04-15T12:43:02;6.83;;;5.20;;
50821;SDS011;36794;51.212;6.980;2023-04-15T12:45:28;5.73;;;5.10;;
50821;SDS011;36794;51.212;6.980;2023-04-15T12:47:54;5.57;;;4.90;;
50821;SDS011;36794;51.212;6.980;2023-04-15T12:50:20;6.17;;;5.10;;
50821;SDS011;36794;51.212;6.980;2023-04-15T12:52:45;7.27;;;5.50;;
50821;SDS011;36794;51.212;6.980;2023-04-15T12:55:11;6.63;;;5.37;;
50821;SDS011;36794;51.212;6.980;2023-04-15T12:57:37;5.87;;;4.67;;
50821;SDS011;36794;51.212;6.980;2023-04-15T13:00:04;4.93;;;4.30;;
50821;SDS011;36794;51.212;6.980;2023-04-15T13:02:32;5.40;;;4.30;;
50821;SDS011;36794;51.212;6.980;2023-04-15T13:04:58;4.73;;;3.77;;
50821;SDS011;36794;51.212;6.980;2023-04-15T13:07:24;4.47;;;3.67;;
50821;SDS011;36794;51.212;6.980;2023-04-15T13:09:50;4.43;;;3.47;;
50821;SDS011;36794;51.212;6.980;2023-04-15T13:12:16;4.63;;;4.00;;
50821;SDS011;36794;51.212;6.980;2023-04-15T13:14:42;4.17;;;3.37;;
50821;SDS011;36794;51.212;6.980;2023-04-15T13:17:08;5.53;;;4.00;;
50821;SDS011;36794;51.212;6.980;2023-04-15T13:19:35;5.63;;;4.07;;
50821;SDS011;36794;51.212;6.980;2023-04-15T13:22:01;6.70;;;4.37;;
50821;SDS011;36794;51.212;6.980;2023-04-15T13:24:27;8.97;;;4.80;;
50821;SDS011;36794;51.212;6.980;2023-04-15T13:26:53;6.17;;;4.80;;
50821;SDS011;36794;51.212;6.980;2023-04-15T13:29:19;7.73;;;4.70;;
50821;SDS011;36794;51.212;6.980;2023-04-15T13:31:46;5.67;;;4.17;;
50821;SDS011;36794;51.212;6.980;2023-04-15T13:34:12;4.77;;;3.50;;
50821;SDS011;36794;51.212;6.980;2023-04-15T13:36:38;4.90;;;3.80;;
50821;SDS011;36794;51.212;6.980;2023-04-15T13:39:03;5.57;;;3.80;;
50821;SDS011;36794;51.212;6.980;2023-04-15T13:41:29;4.10;;;3.03;;
50821;SDS011;36794;51.212;6.980;2023-04-15T13:43:56;5.73;;;3.60;;
50821;SDS011;36794;51.212;6.980;2023-04-15T13:46:22;4.97;;;3.10;;
50821;SDS011;36794;51.212;6.980;2023-04-15T13:48:49;4.53;;;3.20;;
50821;SDS011;36794;51.212;6.980;2023-04-15T13:51:15;5.30;;;3.30;;
50821;SDS011;36794;51.212;6.980;2023-04-15T13:53:41;5.00;;;3.20;;
50821;SDS011;36794;51.212;6.980;2023-04-15T13:56:07;4.20;;;2.90;;
50821;SDS011;36794;51.212;6.980;2023-04-15T13:58:33;4.63;;;2.67;;
50821;SDS011;36794;51.212;6.980;2023-04-15T14:00:59;5.30;;;3.10;;
50821;SDS011;36794;51.212;6.980;2023-04-15T14:03:25;3.70;;;2.60;;
50821;SDS011;36794;51.212;6.980;2023-04-15T14:05:51;5.80;;;3.00;;
50821;SDS011;36794;51.212;6.980;2023-04-15T14:08:20;6.17;;;3.17;;
50821;SDS011;36794;51.212;6.980;2023-04-15T14:10:46;4.40;;;3.00;;
50821;SDS011;36794;51.212;6.980;2023-04-15T14:13:15;5.23;;;3.50;;
50821;SDS011;36794;51.212;6.980;2023-04-15T14:15:41;3.87;;;2.90;;
50821;SDS011;36794;51.212;6.980;2023-04-15T14:18:07;6.80;;;2.90;;
50821;SDS011;36794;51.212;6.980;2023-04-15T14:20:33;5.70;;;2.97;;
50821;SDS011;36794;51.212;6.980;2023-04-15T14:22:59;6.67;;;3.00;;
50821;SDS011;36794;51.212;6.980;2023-04-15T14:25:25;5.43;;;2.93;;
50821;SDS011;36794;51.212;6.980;2023-04-15T14:27:51;4.23;;;3.10;;
50821;SDS011;36794;51.212;6.980;2023-04-15T14:30:17;5.13;;;2.97;;
50821;SDS011;36794;51.212;6.980;2023-04-15T14:32:43;4.80;;;3.30;;
50821;SDS011;36794;51.212;6.980;2023-04-15T14:35:09;6.80;;;3.40;;
50821;SDS011;36794;51.212;6.980;2023-04-15T14:37:35;4.57;;;3.90;;
50821;SDS011;36794;51.212;6.980;2023-04-15T14:40:01;4.77;;;3.23;;
50821;SDS011;36794;51.212;6.980;2023-04-15T14:42:27;4.83;;;3.43;;
50821;SDS011;36794;51.212;6.980;2023-04-15T14:44:53;5.20;;;3.40;;
50821;SDS011;36794;51.212;6.980;2023-04-15T14:47:19;5.27;;;3.73;;
50821;SDS011;36794;51.212;6.980;2023-04-15T14:49:45;6.67;;;3.37;;
50821;SDS011;36794;51.212;6.980;2023-04-15T14:52:11;5.20;;;3.23;;
50821;SDS011;36794;51.212;6.980;2023-04-15T14:54:37;5.17;;;3.60;;
50821;SDS011;36794;51.212;6.980;2023-04-15T14:57:03;5.67;;;3.33;;
50821;SDS011;36794;51.212;6.980;2023-04-15T14:59:29;6.27;;;3.20;;